Alderson, West Virginia
Current Conditions -  °F | °C
As of 2:55 PM on Monday 24 Nov 2014 (Local Time) from KLWB Reporting Station
Clear Clear  
Wind Chill: 70°   Ceiling: Unl
Heat Index: 70°   Visibility: 10mi
Dew Point: 36°   Wind: 22mph
Humidity: 28%   Direction: 230°SW
Pressure: 29.67"   Gusts: 38mph
Location:  37.73°N, 80.64°W
Report Text: KLWB 241955Z AUTO 23019G33KT 10SM CLR 21/02 A2967 RMK AO2 T02130021
Loading
Personal Weather Stations






























Interactive Weather Map New forecast layout! Learn more

10-Day Weather Forecast

Advertisements
Track Severe Weather on mobile